Time;durP1;ratioP1;P1;durP2;ratioP2;P2;SDS_P1;SDS_P2;PMS_P1;PMS_P2;Temp;Humidity;BMP_temperature;BMP_pressure;BME280_temperature;BME280_humidity;BME280_pressure;Samples;Min_cycle;Max_cycle;Signal;HPM_P1;HPM_P2
2022/02/12 00:01:10;;;;;;;5.70;0.95;;;;;;;1.44;74.89;103261.19;5040539;28;20026;-49
2022/02/12 00:03:35;;;;;;;4.90;1.25;;;;;;;1.44;74.63;103250.63;5046354;28;20032;-49
2022/02/12 00:06:01;;;;;;;5.57;1.10;;;;;;;1.37;74.66;103246.78;5039996;28;20033;-48
2022/02/12 00:08:26;;;;;;;8.52;1.40;;;;;;;1.39;74.51;103255.44;5044097;28;20044;-49
2022/02/12 00:10:52;;;;;;;6.05;1.35;;;;;;;1.34;74.69;103256.78;5040157;28;20035;-49
2022/02/12 00:13:17;;;;;;;3.03;1.05;;;;;;;1.28;74.34;103254.66;5035270;28;20032;-52
2022/02/12 00:15:43;;;;;;;4.22;1.20;;;;;;;1.13;74.77;103246.19;5037691;28;20434;-48
2022/02/12 00:18:09;;;;;;;6.43;1.35;;;;;;;1.11;75.17;103254.22;5042588;28;20195;-51
2022/02/12 00:20:35;;;;;;;4.68;1.30;;;;;;;1.15;75.14;103254.81;5042621;28;20021;-49
2022/02/12 00:23:01;;;;;;;7.32;2.03;;;;;;;1.13;75.12;103256.75;5038800;28;20048;-49
2022/02/12 00:25:26;;;;;;;6.85;1.27;;;;;;;1.11;75.03;103253.38;5034915;28;20021;-51
2022/02/12 00:27:52;;;;;;;5.30;1.27;;;;;;;1.14;74.97;103258.41;5042942;28;20035;-49
2022/02/12 00:30:17;;;;;;;3.50;1.05;;;;;;;1.09;74.90;103272.00;5040879;28;20414;-50
2022/02/12 00:32:42;;;;;;;5.60;1.40;;;;;;;1.08;74.99;103272.97;5039446;28;20024;-49
2022/02/12 00:35:08;;;;;;;6.07;1.98;;;;;;;0.99;75.12;103272.84;5036872;28;20036;-49
2022/02/12 00:37:34;;;;;;;4.82;1.27;;;;;;;0.93;75.25;103276.00;5050657;28;20035;-49
2022/02/12 00:40:00;;;;;;;3.88;1.15;;;;;;;0.89;75.50;103270.94;5036056;28;20036;-50
2022/02/12 00:42:26;;;;;;;6.90;2.10;;;;;;;0.94;75.32;103269.75;5042054;28;20388;-48
2022/02/12 00:44:52;;;;;;;6.90;1.98;;;;;;;0.96;75.30;103273.94;5036320;28;20256;-48
2022/02/12 00:47:18;;;;;;;6.15;1.85;;;;;;;0.92;75.38;103269.03;5034930;28;20029;-49
2022/02/12 00:49:44;;;;;;;6.43;1.50;;;;;;;0.88;75.48;103271.91;5039571;28;20166;-49
2022/02/12 00:52:10;;;;;;;9.13;1.67;;;;;;;0.90;75.38;103272.63;5037911;28;20255;-47
2022/02/12 00:54:37;;;;;;;6.93;1.50;;;;;;;0.89;75.28;103281.50;5034637;28;20217;-49
2022/02/12 00:57:03;;;;;;;6.53;1.60;;;;;;;0.83;75.31;103270.59;5037842;28;20036;-47
2022/02/12 00:59:29;;;;;;;8.43;1.55;;;;;;;0.81;75.70;103268.06;5039218;28;20583;-49
2022/02/12 01:01:54;;;;;;;7.07;1.35;;;;;;;0.77;75.93;103277.22;5036593;28;20049;-48
2022/02/12 01:04:20;;;;;;;2.58;1.17;;;;;;;0.77;75.62;103277.22;5037138;28;20410;-48
2022/02/12 01:06:46;;;;;;;8.25;1.40;;;;;;;0.74;75.77;103276.63;5038610;28;20029;-49
2022/02/12 01:09:11;;;;;;;5.43;1.55;;;;;;;0.65;75.99;103272.91;5035700;28;20383;-48
2022/02/12 01:11:37;;;;;;;3.10;1.17;;;;;;;0.70;75.92;103280.44;5037299;28;20406;-48
2022/02/12 01:14:03;;;;;;;4.32;1.45;;;;;;;0.74;76.02;103276.63;5035009;28;20037;-49
2022/02/12 01:16:28;;;;;;;9.15;1.42;;;;;;;0.73;75.98;103281.06;5039718;28;20446;-51
2022/02/12 01:18:53;;;;;;;3.40;1.27;;;;;;;0.66;76.12;103279.00;5036084;28;20040;-48
2022/02/12 01:21:19;;;;;;;4.10;1.17;;;;;;;0.62;76.35;103280.22;5035036;28;20497;-49
2022/02/12 01:23:46;;;;;;;5.28;1.40;;;;;;;0.65;76.31;103287.88;5036764;28;20037;-49
2022/02/12 01:26:12;;;;;;;5.07;1.20;;;;;;;0.66;76.20;103286.91;5036343;28;20084;-50
2022/02/12 01:28:37;;;;;;;3.80;1.50;;;;;;;0.63;76.34;103293.28;5036614;28;20028;-49
2022/02/12 01:31:03;;;;;;;5.90;1.63;;;;;;;0.64;76.29;103289.69;5035135;28;20052;-49
2022/02/12 01:33:28;;;;;;;4.88;1.42;;;;;;;0.55;76.46;103291.25;5036515;28;20021;-48
2022/02/12 01:35:54;;;;;;;10.65;1.85;;;;;;;0.53;76.71;103289.69;5036584;28;20033;-48
2022/02/12 01:38:19;;;;;;;9.32;1.45;;;;;;;0.57;76.67;103296.41;5036979;28;20045;-50
2022/02/12 01:40:46;;;;;;;4.90;1.33;;;;;;;0.56;76.66;103302.66;5034931;28;20029;-48
2022/02/12 01:43:13;;;;;;;10.30;1.73;;;;;;;0.51;76.55;103308.25;5036202;28;20021;-49
2022/02/12 01:45:39;;;;;;;6.32;1.88;;;;;;;0.49;76.52;103299.63;5035048;28;20040;-51
2022/02/12 01:48:05;;;;;;;4.25;1.27;;;;;;;0.44;76.66;103304.44;5035969;28;20037;-49
2022/02/12 01:50:30;;;;;;;4.40;1.50;;;;;;;0.40;77.03;103302.16;5051547;28;20317;-50
2022/02/12 01:52:56;;;;;;;4.93;1.23;;;;;;;0.40;77.10;103310.06;5036711;28;20553;-49
2022/02/12 01:55:21;;;;;;;3.75;1.63;;;;;;;0.41;77.05;103306.47;5034053;28;20025;-50
2022/02/12 01:57:47;;;;;;;2.88;1.55;;;;;;;0.44;76.92;103307.06;5040259;28;20055;-49
2022/02/12 02:00:15;;;;;;;5.65;1.13;;;;;;;0.49;76.96;103307.53;5039335;28;20249;-49
2022/02/12 02:02:41;;;;;;;2.05;1.45;;;;;;;0.50;76.52;103311.84;5036155;28;20101;-49
2022/02/12 02:05:15;;;;;;;3.42;1.48;;;;;;;0.55;76.63;103316.81;5033121;28;20076;-51
2022/02/12 02:07:42;;;;;;;6.38;1.73;;;;;;;0.59;76.38;103312.97;5038578;28;20140;-51
2022/02/12 02:10:10;;;;;;;4.10;1.15;;;;;;;0.61;75.99;103318.94;5033212;28;20025;-49
2022/02/12 02:12:35;;;;;;;2.78;1.67;;;;;;;0.61;75.77;103316.31;5036151;28;20056;-48
2022/02/12 02:15:01;;;;;;;5.68;1.83;;;;;;;0.59;75.97;103323.50;5036245;28;20463;-49
2022/02/12 02:17:27;;;;;;;2.97;1.55;;;;;;;0.56;75.68;103323.75;5038175;28;20028;-49
2022/02/12 02:19:53;;;;;;;5.45;1.67;;;;;;;0.55;75.89;103319.44;5034493;28;20609;-50
2022/02/12 02:22:24;;;;;;;2.63;1.05;;;;;;;0.52;75.55;103319.66;5035015;28;20017;-50
2022/02/12 02:24:50;;;;;;;4.53;1.50;;;;;;;0.51;75.56;103323.25;5034612;28;20060;-49
2022/02/12 02:27:18;;;;;;;5.82;1.70;;;;;;;0.52;75.78;103322.28;5037537;28;20461;-49
2022/02/12 02:29:45;;;;;;;4.30;1.10;;;;;;;0.50;75.67;103317.13;5038268;28;20056;-49
2022/02/12 02:32:12;;;;;;;5.57;1.40;;;;;;;0.51;75.83;103317.97;5033337;28;20051;-49
2022/02/12 02:34:48;;;;;;;5.60;1.77;;;;;;;0.52;75.55;103325.78;5036411;28;20060;-51
2022/02/12 02:37:14;;;;;;;5.20;1.27;;;;;;;0.53;75.24;103316.91;5036341;28;20154;-50
2022/02/12 02:39:39;;;;;;;11.18;1.92;;;;;;;0.51;75.39;103320.63;5035377;28;20021;-50
2022/02/12 02:42:05;;;;;;;9.48;1.52;;;;;;;0.49;75.37;103325.16;5032041;28;20490;-51
2022/02/12 02:44:30;;;;;;;3.35;1.25;;;;;;;0.45;75.29;103319.31;5040164;28;20031;-50
2022/02/12 02:46:56;;;;;;;4.07;1.33;;;;;;;0.40;75.07;103320.63;5039788;28;20024;-48
2022/02/12 02:49:21;;;;;;;4.55;1.25;;;;;;;0.37;75.41;103326.13;5033287;28;20622;-49
2022/02/12 02:57:15;;;;;;;5.93;1.35;;;;;;;0.30;75.28;103331.88;5035852;28;20087;-49
2022/02/12 02:59:40;;;;;;;5.68;1.05;;;;;;;0.30;75.16;103328.38;5040379;28;20272;-49
2022/02/12 03:02:06;;;;;;;2.33;1.60;;;;;;;0.28;75.42;103330.31;5043383;28;20021;-48
2022/02/12 03:04:32;;;;;;;4.88;1.50;;;;;;;0.29;75.47;103330.19;5037631;28;20470;-48
2022/02/12 03:06:57;;;;;;;4.75;1.33;;;;;;;0.32;75.37;103326.47;5039864;28;20025;-48
2022/02/12 03:09:22;;;;;;;5.15;1.48;;;;;;;0.33;75.32;103322.03;5037165;28;20098;-49
2022/02/12 03:11:49;;;;;;;4.22;1.23;;;;;;;0.29;75.35;103335.47;5040143;28;20025;-49
2022/02/12 03:14:14;;;;;;;5.00;1.77;;;;;;;0.30;75.30;103331.03;5037731;28;20972;-48
2022/02/12 03:16:40;;;;;;;5.45;1.52;;;;;;;0.27;75.13;103329.47;5039046;28;20028;-48
2022/02/12 03:19:06;;;;;;;4.20;1.30;;;;;;;0.23;75.21;103333.31;5041248;28;20099;-49
2022/02/12 03:21:32;;;;;;;4.40;1.85;;;;;;;0.20;75.21;103325.63;5036184;28;20017;-49
2022/02/12 03:23:57;;;;;;;2.67;1.42;;;;;;;0.19;75.17;103334.50;5038275;28;20437;-49
2022/02/12 03:26:23;;;;;;;4.32;1.60;;;;;;;0.16;75.05;103326.78;5036088;28;20188;-51
2022/02/12 03:28:48;;;;;;;4.85;1.30;;;;;;;0.16;75.13;103329.44;5038728;28;20107;-48
2022/02/12 03:31:14;;;;;;;9.13;1.75;;;;;;;0.14;75.35;103328.72;5041917;28;20600;-49
2022/02/12 03:33:39;;;;;;;3.55;1.08;;;;;;;0.12;75.15;103338.53;5036496;28;20021;-49
2022/02/12 03:36:05;;;;;;;3.60;1.40;;;;;;;0.11;75.29;103333.38;5038295;28;20039;-49
2022/02/12 03:38:33;;;;;;;7.20;1.55;;;;;;;0.06;75.06;103336.38;5041023;28;20025;-49
2022/02/12 03:41:03;;;;;;;4.32;1.55;;;;;;;0.02;75.15;103329.66;5040236;28;20029;-48
2022/02/12 03:43:31;;;;;;;4.35;1.30;;;;;;;0.00;75.08;103328.94;5037247;28;20033;-49
2022/02/12 03:45:57;;;;;;;3.97;2.03;;;;;;;-0.03;74.92;103334.41;5036500;28;20415;-48
2022/02/12 03:48:24;;;;;;;3.83;1.50;;;;;;;-0.04;75.18;103344.13;5040412;28;20460;-49
2022/02/12 03:50:52;;;;;;;3.22;1.55;;;;;;;-0.04;75.27;103341.47;5042174;28;20036;-48
2022/02/12 03:53:18;;;;;;;5.60;1.67;;;;;;;-0.08;74.86;103347.94;5035498;28;20025;-49
2022/02/12 03:55:44;;;;;;;5.32;1.80;;;;;;;-0.13;75.06;103346.63;5034349;28;20030;-50
2022/02/12 03:58:11;;;;;;;8.65;2.30;;;;;;;-0.17;75.39;103351.28;5041901;28;20044;-48
2022/02/12 04:00:38;;;;;;;3.53;1.60;;;;;;;-0.15;75.33;103351.16;5038745;28;20059;-50
2022/02/12 04:03:04;;;;;;;7.03;2.15;;;;;;;-0.14;75.09;103348.41;5035053;28;20025;-48
2022/02/12 04:05:30;;;;;;;4.18;1.90;;;;;;;-0.10;75.17;103347.22;5039440;28;20067;-48
2022/02/12 04:07:55;;;;;;;5.30;2.08;;;;;;;-0.10;75.02;103355.13;5037101;28;20123;-49
2022/02/12 04:10:21;;;;;;;5.20;1.92;;;;;;;-0.10;75.43;103349.03;5035859;28;20116;-48
2022/02/12 04:12:51;;;;;;;7.07;2.00;;;;;;;-0.10;75.16;103349.03;5036692;28;20092;-50
2022/02/12 04:15:17;;;;;;;6.03;1.60;;;;;;;-0.16;74.92;103347.69;5036324;28;20256;-48
2022/02/12 04:17:44;;;;;;;6.65;1.65;;;;;;;-0.19;74.79;103347.06;5038178;28;20029;-52
2022/02/12 04:20:12;;;;;;;10.40;1.75;;;;;;;-0.19;74.86;103345.25;5038326;28;20136;-50
2022/02/12 04:22:38;;;;;;;4.32;1.88;;;;;;;-0.20;75.33;103340.09;5041082;28;20378;-50
2022/02/12 04:25:07;;;;;;;7.32;3.10;;;;;;;-0.20;75.39;103353.28;5037030;28;20037;-48
2022/02/12 04:27:33;;;;;;;8.55;1.80;;;;;;;-0.20;75.11;103342.75;5036056;28;20060;-51
2022/02/12 04:29:59;;;;;;;5.38;2.72;;;;;;;-0.23;75.39;103345.59;5038893;28;20035;-48
2022/02/12 04:32:25;;;;;;;5.65;1.73;;;;;;;-0.26;75.49;103341.41;5038414;28;20025;-49
2022/02/12 04:34:52;;;;;;;5.38;1.50;;;;;;;-0.27;75.34;103342.38;5038916;28;20466;-49
2022/02/12 04:37:19;;;;;;;4.32;1.77;;;;;;;-0.26;75.25;103340.56;5037498;28;20031;-49
2022/02/12 04:39:45;;;;;;;6.25;1.90;;;;;;;-0.26;75.56;103345.84;5038905;28;20029;-53
2022/02/12 04:42:13;;;;;;;7.68;2.08;;;;;;;-0.27;75.54;103347.63;5039889;28;20512;-49
2022/02/12 04:44:40;;;;;;;5.20;1.92;;;;;;;-0.27;75.58;103346.78;5037936;28;20107;-52
2022/02/12 04:47:06;;;;;;;7.72;2.42;;;;;;;-0.29;75.71;103341.66;5039226;28;20183;-48
2022/02/12 04:49:33;;;;;;;5.43;2.38;;;;;;;-0.28;75.67;103350.38;5036108;28;20285;-49
2022/02/12 04:51:58;;;;;;;4.50;1.67;;;;;;;-0.28;75.52;103350.38;5036729;28;20060;-49
2022/02/12 04:54:24;;;;;;;4.85;1.77;;;;;;;-0.28;75.30;103345.97;5037710;28;20106;-49
2022/02/12 04:56:49;;;;;;;6.93;2.00;;;;;;;-0.27;75.64;103349.44;5037337;28;20076;-48
2022/02/12 04:59:16;;;;;;;5.43;1.88;;;;;;;-0.27;75.30;103341.53;5042187;28;20040;-51
2022/02/12 05:01:41;;;;;;;8.60;1.90;;;;;;;-0.28;75.40;103339.84;5040392;28;20021;-49
2022/02/12 05:04:07;;;;;;;3.00;2.00;;;;;;;-0.31;75.56;103331.22;5039147;28;20036;-48
2022/02/12 05:06:32;;;;;;;7.35;2.10;;;;;;;-0.31;75.29;103325.94;5035772;28;20477;-49
2022/02/12 05:08:58;;;;;;;5.47;2.15;;;;;;;-0.31;75.21;103328.59;5037747;28;20024;-51
2022/02/12 05:11:23;;;;;;;3.95;1.90;;;;;;;-0.33;75.17;103334.94;5034630;28;20392;-48
2022/02/12 05:13:49;;;;;;;3.63;2.22;;;;;;;-0.34;75.38;103328.81;5035283;28;20290;-49
2022/02/12 05:16:14;;;;;;;6.07;1.60;;;;;;;-0.35;75.14;103326.31;5034536;28;20108;-48
2022/02/12 05:18:40;;;;;;;6.85;1.90;;;;;;;-0.36;75.38;103320.19;5038051;28;20462;-48
2022/02/12 05:21:05;;;;;;;2.75;1.73;;;;;;;-0.38;75.52;103322.06;5045204;28;20101;-47
2022/02/12 05:23:31;;;;;;;6.38;1.95;;;;;;;-0.39;75.19;103320.41;5035686;28;20025;-49
2022/02/12 05:25:56;;;;;;;4.28;2.35;;;;;;;-0.42;75.42;103317.16;5035727;28;20025;-48
2022/02/12 05:28:22;;;;;;;3.25;2.10;;;;;;;-0.46;75.12;103316.53;5038245;28;20025;-48
2022/02/12 05:30:47;;;;;;;7.95;2.67;;;;;;;-0.49;75.38;103324.69;5037738;28;20079;-48
2022/02/12 05:33:13;;;;;;;6.85;2.20;;;;;;;-0.49;75.33;103326.47;5036494;28;20082;-47
2022/02/12 05:35:38;;;;;;;5.78;2.55;;;;;;;-0.54;75.10;103328.56;5038343;28;20044;-48
2022/02/12 05:38:04;;;;;;;7.07;1.95;;;;;;;-0.56;75.32;103331.31;5036778;28;20033;-48
2022/02/12 05:40:29;;;;;;;7.40;2.33;;;;;;;-0.59;75.55;103338.63;5033620;28;20119;-48
2022/02/12 05:42:55;;;;;;;6.55;2.60;;;;;;;-0.63;75.55;103335.38;5035184;28;20025;-49
2022/02/12 05:45:21;;;;;;;5.50;2.13;;;;;;;-0.65;75.93;103332.84;5036601;28;20118;-51
2022/02/12 05:47:47;;;;;;;8.10;3.15;;;;;;;-0.66;75.69;103332.97;5036887;28;20119;-48
2022/02/12 05:50:13;;;;;;;8.95;2.13;;;;;;;-0.67;75.71;103344.44;5034155;28;20396;-49
2022/02/12 05:52:39;;;;;;;8.48;2.88;;;;;;;-0.70;75.91;103339.41;5033754;28;20021;-47
2022/02/12 05:55:05;;;;;;;6.57;2.25;;;;;;;-0.69;75.83;103341.09;5034889;28;20039;-50
2022/02/12 05:57:31;;;;;;;6.53;2.65;;;;;;;-0.70;75.65;103339.41;5038987;28;20087;-48
2022/02/12 05:59:56;;;;;;;5.72;2.70;;;;;;;-0.73;75.74;103336.97;5039322;28;20037;-48
2022/02/12 06:02:22;;;;;;;8.38;2.55;;;;;;;-0.74;75.91;103340.56;5040000;28;20056;-50
2022/02/12 06:04:50;;;;;;;8.18;3.10;;;;;;;-0.74;75.96;103345.81;5034251;28;20032;-48
2022/02/12 06:07:15;;;;;;;7.65;2.97;;;;;;;-0.76;76.03;103342.47;5034824;28;20115;-47
2022/02/12 06:09:41;;;;;;;5.40;2.05;;;;;;;-0.77;75.62;103343.41;5037552;28;20061;-48
2022/02/12 06:12:07;;;;;;;8.52;2.80;;;;;;;-0.80;75.56;103349.75;5034930;28;20028;-48
2022/02/12 06:14:32;;;;;;;6.97;2.92;;;;;;;-0.83;76.09;103344.69;5035401;28;20030;-47
2022/02/12 06:17:00;;;;;;;8.57;3.22;;;;;;;-0.89;75.57;103347.78;5039311;28;20031;-48
2022/02/12 06:19:26;;;;;;;7.78;2.33;;;;;;;-0.98;76.09;103346.63;5035788;28;20437;-51
2022/02/12 06:21:52;;;;;;;7.00;2.55;;;;;;;-1.00;76.04;103351.16;5034526;28;20386;-48
2022/02/12 06:24:17;;;;;;;9.68;3.35;;;;;;;-0.99;76.22;103352.84;5037289;28;20044;-51
2022/02/12 06:26:51;;;;;;;7.75;2.67;;;;;;;-0.97;76.37;103358.00;5040697;28;20025;-50
2022/02/12 06:29:18;;;;;;;5.47;2.78;;;;;;;-0.96;76.27;103354.41;5038731;28;20028;-49
2022/02/12 06:31:44;;;;;;;4.82;2.72;;;;;;;-0.97;76.82;103356.22;5042433;28;20070;-49
2022/02/12 06:34:09;;;;;;;7.20;3.10;;;;;;;-0.93;76.67;103352.41;5036933;28;20119;-49
2022/02/12 06:36:35;;;;;;;8.02;3.00;;;;;;;-0.91;76.48;103363.66;5035658;28;20599;-48
2022/02/12 06:39:00;;;;;;;5.15;3.00;;;;;;;-0.91;76.31;103353.13;5042966;28;20552;-50
2022/02/12 06:41:26;;;;;;;7.43;3.70;;;;;;;-0.91;76.59;103345.22;5040864;28;20027;-51
2022/02/12 06:43:51;;;;;;;11.13;3.50;;;;;;;-0.96;76.59;103349.16;5039081;28;20013;-47
2022/02/12 06:46:17;;;;;;;7.53;2.75;;;;;;;-1.02;76.47;103352.22;5035143;28;20394;-48
2022/02/12 06:48:44;;;;;;;8.43;3.72;;;;;;;-1.08;76.89;103356.09;5039617;28;20037;-50
2022/02/12 06:51:10;;;;;;;6.60;3.63;;;;;;;-1.15;77.04;103352.25;5039992;28;20732;-49
2022/02/12 06:53:36;;;;;;;5.65;3.58;;;;;;;-1.15;76.88;103359.28;5041952;28;20032;-49
2022/02/12 06:56:02;;;;;;;10.82;3.85;;;;;;;-1.16;76.98;103358.44;5041308;28;20037;-48
2022/02/12 06:58:28;;;;;;;7.68;3.10;;;;;;;-1.13;77.09;103366.13;5040559;28;20094;-49
2022/02/12 07:00:53;;;;;;;12.18;3.13;;;;;;;-1.10;76.93;103360.66;5042798;28;20124;-51
2022/02/12 07:03:19;;;;;;;7.45;3.80;;;;;;;-1.09;76.95;103370.22;5043884;28;20021;-49
2022/02/12 07:05:44;;;;;;;9.55;3.25;;;;;;;-1.10;76.79;103368.53;5039948;28;20692;-51
2022/02/12 07:08:10;;;;;;;6.30;3.35;;;;;;;-1.11;77.19;103372.13;5040422;28;20040;-48
2022/02/12 07:10:36;;;;;;;5.93;3.10;;;;;;;-1.10;77.10;103375.59;5040303;28;20456;-50
2022/02/12 07:13:04;;;;;;;8.77;4.03;;;;;;;-1.11;77.26;103377.38;5040835;28;20029;-48
2022/02/12 07:15:30;;;;;;;10.20;3.67;;;;;;;-1.10;77.58;103365.06;5039195;28;20033;-50
2022/02/12 07:17:56;;;;;;;8.68;3.47;;;;;;;-1.03;77.32;103361.91;5042146;28;20290;-53
2022/02/12 07:20:21;;;;;;;9.13;3.17;;;;;;;-0.95;77.24;103377.16;5040051;28;20103;-49
2022/02/12 07:22:47;;;;;;;7.32;3.63;;;;;;;-0.92;77.83;103376.94;5041804;28;20017;-49
2022/02/12 07:25:14;;;;;;;10.60;3.13;;;;;;;-0.88;77.81;103383.69;5040180;28;20032;-48
2022/02/12 07:27:40;;;;;;;10.43;3.45;;;;;;;-0.83;78.18;103384.19;5042277;28;20064;-48
2022/02/12 07:30:08;;;;;;;13.13;3.70;;;;;;;-0.75;77.96;103379.22;5038759;28;20482;-51
2022/02/12 07:32:37;;;;;;;6.22;3.28;;;;;;;-0.67;78.56;103378.69;5034082;28;20028;-48
2022/02/12 07:35:07;;;;;;;7.68;3.60;;;;;;;-0.56;78.44;103381.34;5036512;28;20497;-48
2022/02/12 07:37:33;;;;;;;8.30;3.67;;;;;;;-0.45;78.40;103388.50;5036137;28;20299;-49
2022/02/12 07:40:01;;;;;;;6.55;3.22;;;;;;;-0.36;78.15;103387.81;5040027;28;20086;-51
2022/02/12 07:42:27;;;;;;;8.32;3.05;;;;;;;-0.25;77.81;103389.69;5040274;28;20075;-48
2022/02/12 07:44:53;;;;;;;11.25;3.35;;;;;;;-0.19;77.99;103379.50;5038827;28;20028;-49
2022/02/12 07:47:18;;;;;;;17.15;4.18;;;;;;;-0.10;77.95;103385.91;4995527;28;1185289;-52
2022/02/12 07:49:44;;;;;;;9.38;4.18;;;;;;;-0.01;77.73;103380.78;5040548;28;20552;-51
2022/02/12 07:52:10;;;;;;;7.40;3.65;;;;;;;0.10;77.59;103377.34;5040209;28;20171;-49
2022/02/12 07:54:35;;;;;;;7.70;3.58;;;;;;;0.15;77.30;103374.38;5039736;28;20020;-49
2022/02/12 07:57:01;;;;;;;7.78;3.47;;;;;;;0.20;77.76;103375.72;5037419;28;20020;-50
2022/02/12 07:59:27;;;;;;;8.57;4.00;;;;;;;0.25;77.45;103370.94;5041350;28;20544;-50
2022/02/12 08:01:52;;;;;;;11.23;3.92;;;;;;;0.30;77.41;103379.34;5038978;28;20058;-53
2022/02/12 08:04:18;;;;;;;9.35;4.00;;;;;;;0.34;77.50;103373.81;5037821;28;20021;-51
2022/02/12 08:09:27;;;;;;;8.07;4.05;;;;;;;0.35;77.56;103380.78;5038897;28;20544;-50
2022/02/12 08:12:01;;;;;;;10.68;3.97;;;;;;;0.38;77.70;103381.41;5038556;28;20029;-52
2022/02/12 08:14:27;;;;;;;10.10;4.28;;;;;;;0.40;78.11;103387.41;5041641;28;20032;-50
2022/02/12 08:16:53;;;;;;;12.90;4.28;;;;;;;0.45;78.14;103387.88;5040520;28;20474;-52
2022/02/12 08:19:18;;;;;;;9.77;4.63;;;;;;;0.52;78.39;103401.44;5037499;28;20052;-52
2022/02/12 08:21:44;;;;;;;10.27;4.15;;;;;;;0.58;78.57;103398.34;5039012;28;20670;-49
2022/02/12 08:24:09;;;;;;;12.38;4.47;;;;;;;0.67;78.51;103399.41;5041143;28;20096;-51
2022/02/12 08:26:35;;;;;;;7.93;4.68;;;;;;;0.76;78.34;103399.56;5038864;28;20111;-49
2022/02/12 08:29:00;;;;;;;9.98;3.83;;;;;;;0.84;78.54;103399.78;5040611;28;20020;-52
2022/02/12 08:31:26;;;;;;;7.68;3.67;;;;;;;0.96;78.31;103395.38;5041285;28;20045;-50
2022/02/12 08:33:51;;;;;;;8.73;4.20;;;;;;;1.09;78.33;103392.63;5039417;28;20398;-53
2022/02/12 08:36:17;;;;;;;9.95;4.20;;;;;;;1.25;78.37;103397.50;5039310;28;20044;-51
2022/02/12 08:38:42;;;;;;;8.15;3.97;;;;;;;1.37;77.78;103394.72;5041377;28;20027;-50
2022/02/12 08:41:08;;;;;;;11.38;5.25;;;;;;;1.49;77.77;103398.19;5038003;28;20506;-54
2022/02/12 08:43:33;;;;;;;11.50;4.78;;;;;;;1.61;77.56;103396.34;5039914;28;20074;-54
2022/02/12 08:45:59;;;;;;;15.20;5.32;;;;;;;1.77;77.55;103394.13;5039830;28;20021;-53
2022/02/12 08:48:24;;;;;;;11.55;4.60;;;;;;;1.92;77.24;103387.59;5038269;28;20028;-50
2022/02/12 08:50:50;;;;;;;11.50;5.20;;;;;;;2.02;77.28;103382.41;5040208;28;20040;-54
2022/02/12 08:53:16;;;;;;;12.25;4.45;;;;;;;2.13;76.95;103385.81;5041594;28;20073;-49
2022/02/12 08:55:42;;;;;;;9.27;4.18;;;;;;;2.28;76.96;103378.41;5034815;28;20393;-49
2022/02/12 08:58:07;;;;;;;11.52;3.60;;;;;;;2.43;76.68;103381.56;5040829;28;20021;-52
2022/02/12 09:00:33;;;;;;;7.63;3.63;;;;;;;2.56;76.30;103387.50;5037983;28;20067;-52
2022/02/12 09:02:58;;;;;;;9.95;4.68;;;;;;;2.67;75.80;103394.50;5037956;28;20275;-52
2022/02/12 09:05:24;;;;;;;8.65;3.75;;;;;;;2.79;75.80;103389.97;5036708;28;20036;-52
2022/02/12 09:07:49;;;;;;;9.00;3.83;;;;;;;2.89;75.46;103386.41;5039467;28;20036;-53
2022/02/12 09:10:15;;;;;;;11.32;4.00;;;;;;;3.02;75.32;103389.66;5036747;28;20035;-51
2022/02/12 09:12:40;;;;;;;10.10;4.50;;;;;;;3.15;75.25;103392.06;5036866;28;20029;-49
2022/02/12 09:15:07;;;;;;;9.50;4.05;;;;;;;3.21;74.52;103394.19;5038907;28;20061;-51
2022/02/12 09:17:33;;;;;;;12.57;3.75;;;;;;;3.29;74.58;103398.81;5037885;28;20036;-51
2022/02/12 09:19:58;;;;;;;13.82;5.03;;;;;;;3.34;74.29;103397.44;5035738;28;20029;-51
2022/02/12 09:22:25;;;;;;;14.43;4.65;;;;;;;3.32;73.85;103399.38;5035628;28;20032;-51
2022/02/12 09:24:50;;;;;;;11.23;4.47;;;;;;;3.30;73.99;103397.84;5037987;28;20029;-54
2022/02/12 09:27:16;;;;;;;11.45;4.38;;;;;;;3.22;73.78;103400.31;5046615;28;20151;-52
2022/02/12 09:29:42;;;;;;;7.07;4.72;;;;;;;3.23;74.26;103400.22;5039352;28;20614;-49
2022/02/12 09:32:08;;;;;;;11.52;4.65;;;;;;;3.25;74.42;103395.59;5039165;28;20037;-50
2022/02/12 09:34:34;;;;;;;15.95;4.05;;;;;;;3.32;74.26;103396.72;5037304;28;20021;-53
2022/02/12 09:36:59;;;;;;;8.98;3.63;;;;;;;3.40;73.95;103395.19;5034623;28;20021;-53
2022/02/12 09:39:25;;;;;;;10.32;3.33;;;;;;;3.45;73.82;103395.66;5035723;28;20060;-49
2022/02/12 09:41:50;;;;;;;11.82;3.55;;;;;;;3.50;73.32;103388.97;5037493;28;20526;-55
2022/02/12 09:44:16;;;;;;;10.05;3.50;;;;;;;3.49;73.08;103387.28;5041853;28;20041;-54
2022/02/12 09:46:58;;;;;;;9.85;3.55;;;;;;;3.54;73.27;103389.50;5036461;28;20029;-53
2022/02/12 09:49:24;;;;;;;11.75;3.60;;;;;;;3.59;73.11;103380.19;5033970;28;20615;-53
2022/02/12 09:51:52;;;;;;;9.35;3.22;;;;;;;3.64;73.27;103382.44;5039940;28;20029;-54
2022/02/12 09:54:18;;;;;;;7.55;3.80;;;;;;;3.78;73.10;103387.34;5033211;28;20028;-52
2022/02/12 09:56:44;;;;;;;12.55;4.30;;;;;;;3.93;72.84;103369.16;5033617;28;20036;-53
2022/02/12 09:59:10;;;;;;;6.43;3.28;;;;;;;4.02;72.08;103372.81;5031351;28;20036;-51
2022/02/12 10:01:39;;;;;;;8.68;3.10;;;;;;;4.12;72.25;103373.63;5038116;28;20024;-53
2022/02/12 10:04:16;;;;;;;7.88;2.90;;;;;;;4.23;71.74;103365.50;5038529;28;20203;-54
2022/02/12 10:06:43;;;;;;;9.93;3.30;;;;;;;4.34;71.36;103364.53;5037089;28;20028;-51
2022/02/12 10:09:09;;;;;;;8.02;3.50;;;;;;;4.41;71.16;103369.09;5038812;28;20474;-53
2022/02/12 10:11:40;;;;;;;12.75;3.33;;;;;;;4.39;70.70;103365.75;5038505;28;20174;-54
2022/02/12 10:14:14;;;;;;;10.05;3.50;;;;;;;4.41;70.87;103358.50;5038087;28;20087;-54
2022/02/12 10:17:02;;;;;;;6.90;3.88;;;;;;;4.54;70.66;103359.03;5035579;28;20089;-53
2022/02/12 10:19:30;;;;;;;7.65;2.72;;;;;;;4.69;70.65;103345.28;5036442;28;20025;-52
2022/02/12 10:22:15;;;;;;;5.20;2.97;;;;;;;4.73;69.61;103344.00;5036396;28;20051;-54
2022/02/12 10:24:58;;;;;;;8.80;3.00;;;;;;;4.84;69.71;103349.94;5038980;28;20032;-51
2022/02/12 10:27:28;;;;;;;10.32;3.63;;;;;;;4.96;69.37;103352.41;5033796;28;20095;-51
2022/02/12 10:29:58;;;;;;;7.97;3.17;;;;;;;4.99;68.96;103354.78;5036975;28;20043;-52
2022/02/12 10:32:25;;;;;;;7.85;2.97;;;;;;;5.07;68.94;103353.06;5034713;28;20394;-52
2022/02/12 10:34:52;;;;;;;7.53;3.08;;;;;;;5.11;68.18;103346.47;5037493;28;20032;-50
2022/02/12 10:37:23;;;;;;;6.38;3.10;;;;;;;5.18;67.89;103345.88;5036601;28;20077;-52
2022/02/12 10:39:55;;;;;;;7.45;3.15;;;;;;;5.24;67.92;103337.31;5037041;28;20051;-52
2022/02/12 10:42:23;;;;;;;8.88;3.42;;;;;;;5.25;67.88;103336.31;5039116;28;20078;-51
2022/02/12 10:44:50;;;;;;;8.02;3.50;;;;;;;5.28;67.26;103331.53;5035353;28;20508;-53
2022/02/12 10:47:19;;;;;;;9.70;3.67;;;;;;;5.36;67.76;103328.13;5042284;28;20087;-53
2022/02/12 10:49:47;;;;;;;12.27;3.33;;;;;;;5.47;67.18;103334.06;5035440;28;20327;-55
2022/02/12 10:52:14;;;;;;;9.57;3.55;;;;;;;5.57;67.07;103333.16;5036180;28;20049;-52
2022/02/12 10:54:47;;;;;;;10.07;2.53;;;;;;;5.63;66.74;103328.06;5035840;28;20104;-53
2022/02/12 10:57:13;;;;;;;9.75;3.30;;;;;;;5.76;66.59;103325.03;5030024;28;20083;-52
2022/02/12 10:59:42;;;;;;;8.70;3.10;;;;;;;5.84;65.96;103334.91;5035566;28;20130;-52
2022/02/12 11:02:18;;;;;;;12.45;3.92;;;;;;;5.85;65.61;103326.75;5038584;28;20033;-53
2022/02/12 11:04:48;;;;;;;8.75;3.22;;;;;;;5.91;65.82;103317.34;5035812;28;20489;-52
2022/02/12 11:07:17;;;;;;;9.25;3.63;;;;;;;5.97;64.93;103314.09;5036313;28;20509;-52
2022/02/12 11:09:47;;;;;;;8.82;3.60;;;;;;;6.02;65.59;103315.28;5034527;28;20037;-50
2022/02/12 11:12:14;;;;;;;11.07;3.83;;;;;;;6.14;65.90;103313.22;5036013;28;21698;-49
2022/02/12 11:14:43;;;;;;;9.00;3.67;;;;;;;6.20;64.93;103312.56;5039518;28;20028;-52
2022/02/12 11:17:16;;;;;;;9.43;3.30;;;;;;;6.04;63.58;103301.81;5033659;28;20047;-54
2022/02/12 11:19:44;;;;;;;7.50;3.00;;;;;;;6.10;65.15;103301.19;5038285;28;20029;-54
2022/02/12 11:22:11;;;;;;;6.80;3.25;;;;;;;6.20;64.07;103291.28;5038898;28;20493;-51
2022/02/12 11:24:38;;;;;;;10.90;3.80;;;;;;;6.12;63.77;103285.09;5035963;28;20095;-56
2022/02/12 11:27:19;;;;;;;11.65;3.40;;;;;;;6.15;64.50;103277.63;5039882;28;21545;-53
2022/02/12 11:29:45;;;;;;;7.10;3.90;;;;;;;6.31;64.58;103277.72;5039636;28;20095;-57
2022/02/12 11:32:23;;;;;;;10.30;3.42;;;;;;;6.38;63.88;103275.25;5036163;28;20017;-55
2022/02/12 11:35:09;;;;;;;12.15;4.90;;;;;;;6.35;62.76;103272.91;5034938;28;20119;-55